sensor_id;sensor_type;location;lat;lon;timestamp;pressure;altitude;pressure_sealevel;temperature;humidity
60087;BME280;45960;53.630;55.972;2022-07-04T00:00:18;98865.16;;;17.31;61.08
60087;BME280;45960;53.630;55.972;2022-07-04T00:01:20;98861.81;;;17.29;61.03
60087;BME280;45960;53.630;55.972;2022-07-04T00:02:21;98863.47;;;17.30;61.04
60087;BME280;45960;53.630;55.972;2022-07-04T00:03:22;98867.22;;;17.29;60.95
60087;BME280;45960;53.630;55.972;2022-07-04T00:04:23;98859.13;;;17.29;61.02
60087;BME280;45960;53.630;55.972;2022-07-04T00:05:24;98861.13;;;17.27;61.09
60087;BME280;45960;53.630;55.972;2022-07-04T00:06:25;98860.13;;;17.28;61.05
60087;BME280;45960;53.630;55.972;2022-07-04T00:07:26;98865.50;;;17.28;60.96
60087;BME280;45960;53.630;55.972;2022-07-04T00:08:27;98864.50;;;17.29;60.96
60087;BME280;45960;53.630;55.972;2022-07-04T00:09:28;98863.47;;;17.30;61.29
60087;BME280;45960;53.630;55.972;2022-07-04T00:10:29;98861.81;;;17.29;61.28
60087;BME280;45960;53.630;55.972;2022-07-04T00:11:30;98863.47;;;17.30;61.42
60087;BME280;45960;53.630;55.972;2022-07-04T00:12:31;98859.84;;;17.22;61.36
60087;BME280;45960;53.630;55.972;2022-07-04T00:13:32;98864.00;;;17.25;61.43
60087;BME280;45960;53.630;55.972;2022-07-04T00:14:34;98865.88;;;17.25;61.33
60087;BME280;45960;53.630;55.972;2022-07-04T00:15:35;98853.09;;;17.18;61.55
60087;BME280;45960;53.630;55.972;2022-07-04T00:16:36;98866.22;;;17.21;61.46
60087;BME280;45960;53.630;55.972;2022-07-04T00:17:37;98864.72;;;17.19;61.41
60087;BME280;45960;53.630;55.972;2022-07-04T00:18:38;98862.84;;;17.19;61.40
60087;BME280;45960;53.630;55.972;2022-07-04T00:19:40;98871.16;;;17.18;61.44
60087;BME280;45960;53.630;55.972;2022-07-04T00:20:40;98868.25;;;17.19;61.44
60087;BME280;45960;53.630;55.972;2022-07-04T00:21:42;98869.94;;;17.20;61.74
60087;BME280;45960;53.630;55.972;2022-07-04T00:22:43;98837.50;;;17.06;61.45
60087;BME280;45960;53.630;55.972;2022-07-04T00:23:45;98862.69;;;17.21;61.63
60087;BME280;45960;53.630;55.972;2022-07-04T00:24:46;98866.22;;;17.21;61.45
60087;BME280;45960;53.630;55.972;2022-07-04T00:25:47;98865.38;;;17.21;61.55
60087;BME280;45960;53.630;55.972;2022-07-04T00:26:48;98832.41;;;17.03;61.55
60087;BME280;45960;53.630;55.972;2022-07-04T00:27:49;98866.22;;;17.21;61.64
60087;BME280;45960;53.630;55.972;2022-07-04T00:28:50;98860.81;;;17.21;61.59
60087;BME280;45960;53.630;55.972;2022-07-04T00:29:51;98865.38;;;17.21;61.60
60087;BME280;45960;53.630;55.972;2022-07-04T00:30:52;98822.19;;;16.98;61.69
60087;BME280;45960;53.630;55.972;2022-07-04T00:31:54;98863.22;;;17.16;61.70
60087;BME280;45960;53.630;55.972;2022-07-04T00:32:55;98866.59;;;17.18;61.63
60087;BME280;45960;53.630;55.972;2022-07-04T00:33:57;98866.59;;;17.18;61.65
60087;BME280;45960;53.630;55.972;2022-07-04T00:34:58;98857.66;;;17.18;61.81
60087;BME280;45960;53.630;55.972;2022-07-04T00:35:59;98861.38;;;17.17;61.72
60087;BME280;45960;53.630;55.972;2022-07-04T00:37:00;98819.16;;;16.93;61.91
60087;BME280;45960;53.630;55.972;2022-07-04T00:38:01;98857.47;;;17.19;61.96
60087;BME280;45960;53.630;55.972;2022-07-04T00:39:03;98857.47;;;17.19;61.88
60087;BME280;45960;53.630;55.972;2022-07-04T00:40:04;98865.75;;;17.18;61.85
60087;BME280;45960;53.630;55.972;2022-07-04T00:41:06;98856.97;;;17.16;61.85
60087;BME280;45960;53.630;55.972;2022-07-04T00:42:07;98864.91;;;17.17;61.99
60087;BME280;45960;53.630;55.972;2022-07-04T00:43:09;98863.22;;;17.16;61.87
60087;BME280;45960;53.630;55.972;2022-07-04T00:44:11;98863.56;;;17.13;62.06
60087;BME280;45960;53.630;55.972;2022-07-04T00:45:13;98870.31;;;17.17;62.01
60087;BME280;45960;53.630;55.972;2022-07-04T00:46:14;98861.19;;;17.18;61.86
60087;BME280;45960;53.630;55.972;2022-07-04T00:47:15;98786.19;;;16.66;62.26
60087;BME280;45960;53.630;55.972;2022-07-04T00:48:17;98864.56;;;17.20;62.14
60087;BME280;45960;53.630;55.972;2022-07-04T00:49:19;98862.53;;;17.22;62.09
60087;BME280;45960;53.630;55.972;2022-07-04T00:50:20;98864.19;;;17.23;62.04
60087;BME280;45960;53.630;55.972;2022-07-04T00:51:23;98865.88;;;17.25;62.19
60087;BME280;45960;53.630;55.972;2022-07-04T00:52:24;98863.84;;;17.27;62.19
60087;BME280;45960;53.630;55.972;2022-07-04T00:53:26;98868.22;;;17.28;62.19
60087;BME280;45960;53.630;55.972;2022-07-04T00:54:30;98855.06;;;17.25;62.69
60087;BME280;45960;53.630;55.972;2022-07-04T00:55:33;98859.47;;;17.26;62.37
60087;BME280;45960;53.630;55.972;2022-07-04T00:56:38;98858.78;;;17.23;62.32
60087;BME280;45960;53.630;55.972;2022-07-04T00:57:40;98865.50;;;17.28;62.45
60087;BME280;45960;53.630;55.972;2022-07-04T00:58:41;98860.13;;;17.28;62.42
60087;BME280;45960;53.630;55.972;2022-07-04T00:59:43;98860.41;;;17.33;62.27
60087;BME280;45960;53.630;55.972;2022-07-04T01:00:44;98850.28;;;17.35;62.39
60087;BME280;45960;53.630;55.972;2022-07-04T01:01:45;98859.91;;;17.37;62.38
60087;BME280;45960;53.630;55.972;2022-07-04T01:02:47;98866.81;;;17.40;62.30
60087;BME280;45960;53.630;55.972;2022-07-04T01:03:49;98866.97;;;17.38;62.33
60087;BME280;45960;53.630;55.972;2022-07-04T01:04:50;98864.75;;;17.42;62.51
60087;BME280;45960;53.630;55.972;2022-07-04T01:05:51;98863.75;;;17.43;62.45
60087;BME280;45960;53.630;55.972;2022-07-04T01:06:52;98865.41;;;17.44;62.58
60087;BME280;45960;53.630;55.972;2022-07-04T01:07:54;98863.38;;;17.46;62.57
60087;BME280;45960;53.630;55.972;2022-07-04T01:08:55;98868.63;;;17.48;62.50
60087;BME280;45960;53.630;55.972;2022-07-04T01:09:57;98821.72;;;17.17;62.47
60087;BME280;45960;53.630;55.972;2022-07-04T01:10:58;98871.78;;;17.51;62.41
60087;BME280;45960;53.630;55.972;2022-07-04T01:11:59;98866.03;;;17.54;62.50
60087;BME280;45960;53.630;55.972;2022-07-04T01:13:00;98871.06;;;17.57;62.36
60087;BME280;45960;53.630;55.972;2022-07-04T01:14:01;98849.53;;;17.49;62.34
60087;BME280;45960;53.630;55.972;2022-07-04T01:15:04;98833.38;;;17.41;62.34
60087;BME280;45960;53.630;55.972;2022-07-04T01:16:05;98846.09;;;17.55;62.12
60087;BME280;45960;53.630;55.972;2022-07-04T01:17:06;98862.56;;;17.68;62.09
60087;BME280;45960;53.630;55.972;2022-07-04T01:18:07;98870.28;;;17.72;61.96
60087;BME280;45960;53.630;55.972;2022-07-04T01:19:08;98875.31;;;17.75;62.01
60087;BME280;45960;53.630;55.972;2022-07-04T01:20:14;98872.63;;;17.75;61.91
60087;BME280;45960;53.630;55.972;2022-07-04T01:21:16;98862.31;;;17.78;61.97
60087;BME280;45960;53.630;55.972;2022-07-04T01:22:17;98868.22;;;17.82;61.84
60087;BME280;45960;53.630;55.972;2022-07-04T01:23:20;98867.03;;;17.84;61.80
60087;BME280;45960;53.630;55.972;2022-07-04T01:24:21;98873.72;;;17.88;61.75
60087;BME280;45960;53.630;55.972;2022-07-04T01:25:22;98869.16;;;17.89;61.58
60087;BME280;45960;53.630;55.972;2022-07-04T01:26:23;98842.41;;;17.79;61.31
60087;BME280;45960;53.630;55.972;2022-07-04T01:27:24;98873.84;;;17.95;61.29
60087;BME280;45960;53.630;55.972;2022-07-04T01:28:26;98876.22;;;17.98;61.56
60087;BME280;45960;53.630;55.972;2022-07-04T01:29:27;98875.16;;;17.99;61.15
60087;BME280;45960;53.630;55.972;2022-07-04T01:30:29;98866.03;;;18.00;61.08
60087;BME280;45960;53.630;55.972;2022-07-04T01:31:30;98864.00;;;18.02;61.22
60087;BME280;45960;53.630;55.972;2022-07-04T01:32:31;98863.63;;;18.05;61.10
60087;BME280;45960;53.630;55.972;2022-07-04T01:33:33;98867.00;;;18.07;61.12
60087;BME280;45960;53.630;55.972;2022-07-04T01:34:34;98835.75;;;17.90;61.02
60087;BME280;45960;53.630;55.972;2022-07-04T01:35:36;98856.19;;;18.07;61.29
60087;BME280;45960;53.630;55.972;2022-07-04T01:36:37;98833.88;;;17.91;61.19
60087;BME280;45960;53.630;55.972;2022-07-04T01:37:38;98814.28;;;17.88;60.99
60087;BME280;45960;53.630;55.972;2022-07-04T01:38:39;98871.13;;;18.18;60.85
60087;BME280;45960;53.630;55.972;2022-07-04T01:39:40;98865.16;;;18.23;60.71
60087;BME280;45960;53.630;55.972;2022-07-04T01:40:42;98866.84;;;18.24;60.60
60087;BME280;45960;53.630;55.972;2022-07-04T01:41:43;98864.78;;;18.26;60.39
60087;BME280;45960;53.630;55.972;2022-07-04T01:42:44;98870.84;;;18.28;60.26
60087;BME280;45960;53.630;55.972;2022-07-04T01:43:45;98870.47;;;18.31;60.27
60087;BME280;45960;53.630;55.972;2022-07-04T01:44:46;98871.16;;;18.33;60.06
60087;BME280;45960;53.630;55.972;2022-07-04T01:45:47;98876.19;;;18.36;60.20
60087;BME280;45960;53.630;55.972;2022-07-04T01:46:48;98878.50;;;18.39;60.07
60087;BME280;45960;53.630;55.972;2022-07-04T01:47:49;98875.81;;;18.39;60.23
60087;BME280;45960;53.630;55.972;2022-07-04T01:48:50;98869.19;;;18.42;60.21
60087;BME280;45960;53.630;55.972;2022-07-04T01:49:51;98877.97;;;18.44;60.35
60087;BME280;45960;53.630;55.972;2022-07-04T01:50:52;98882.16;;;18.46;60.18
60087;BME280;45960;53.630;55.972;2022-07-04T01:51:54;98881.78;;;18.49;60.44
60087;BME280;45960;53.630;55.972;2022-07-04T01:52:55;98874.53;;;18.50;59.90
60087;BME280;45960;53.630;55.972;2022-07-04T01:53:56;98873.47;;;18.51;59.95
60087;BME280;45960;53.630;55.972;2022-07-04T01:54:57;98877.69;;;18.53;60.04
60087;BME280;45960;53.630;55.972;2022-07-04T01:55:58;98872.94;;;18.55;60.13
60087;BME280;45960;53.630;55.972;2022-07-04T01:56:59;98836.16;;;18.31;60.10
60087;BME280;45960;53.630;55.972;2022-07-04T01:58:00;98880.31;;;18.62;60.03
60087;BME280;45960;53.630;55.972;2022-07-04T01:59:01;98875.56;;;18.64;59.90
60087;BME280;45960;53.630;55.972;2022-07-04T02:00:06;98877.22;;;18.65;59.84
60087;BME280;45960;53.630;55.972;2022-07-04T02:01:26;98878.63;;;18.61;59.85
60087;BME280;45960;53.630;55.972;2022-07-04T02:02:30;98867.44;;;18.64;59.75
60087;BME280;45960;53.630;55.972;2022-07-04T02:03:31;98875.00;;;18.68;59.75
60087;BME280;45960;53.630;55.972;2022-07-04T02:04:32;98870.06;;;18.72;59.82
60087;BME280;45960;53.630;55.972;2022-07-04T02:05:33;98880.53;;;18.75;59.80
60087;BME280;45960;53.630;55.972;2022-07-04T02:06:35;98867.00;;;18.75;59.71
60087;BME280;45960;53.630;55.972;2022-07-04T02:07:36;98876.78;;;18.76;59.65
60087;BME280;45960;53.630;55.972;2022-07-04T02:08:37;98882.31;;;18.83;59.52
60087;BME280;45960;53.630;55.972;2022-07-04T02:09:57;98879.78;;;18.81;59.81
60087;BME280;45960;53.630;55.972;2022-07-04T02:10:58;98880.22;;;18.85;59.54
60087;BME280;45960;53.630;55.972;2022-07-04T02:11:59;98876.31;;;18.87;59.67
60087;BME280;45960;53.630;55.972;2022-07-04T02:13:18;98881.09;;;18.85;59.67
60087;BME280;45960;53.630;55.972;2022-07-04T02:14:19;98879.03;;;18.87;59.53
60087;BME280;45960;53.630;55.972;2022-07-04T02:15:24;98882.38;;;18.89;59.54
60087;BME280;45960;53.630;55.972;2022-07-04T02:16:25;98881.19;;;18.92;59.32
60087;BME280;45960;53.630;55.972;2022-07-04T02:17:26;98883.72;;;18.93;59.37
60087;BME280;45960;53.630;55.972;2022-07-04T02:18:27;98883.72;;;18.93;59.15
60087;BME280;45960;53.630;55.972;2022-07-04T02:19:28;98881.63;;;18.95;59.11
60087;BME280;45960;53.630;55.972;2022-07-04T02:20:31;98883.31;;;18.96;59.39
60087;BME280;45960;53.630;55.972;2022-07-04T02:21:32;98877.25;;;18.94;59.43
60087;BME280;45960;53.630;55.972;2022-07-04T02:22:33;98881.47;;;18.97;59.25
60087;BME280;45960;53.630;55.972;2022-07-04T02:23:34;98884.16;;;18.97;59.46
60087;BME280;45960;53.630;55.972;2022-07-04T02:24:35;98885.00;;;18.97;59.30
60087;BME280;45960;53.630;55.972;2022-07-04T02:25:36;98880.63;;;18.96;59.41
60087;BME280;45960;53.630;55.972;2022-07-04T02:26:39;98876.22;;;18.95;59.50
60087;BME280;45960;53.630;55.972;2022-07-04T02:27:41;98877.91;;;18.96;59.48
60087;BME280;45960;53.630;55.972;2022-07-04T02:28:42;98878.28;;;18.93;59.40
60087;BME280;45960;53.630;55.972;2022-07-04T02:29:43;98876.22;;;18.95;59.39
60087;BME280;45960;53.630;55.972;2022-07-04T02:30:44;98883.31;;;18.96;59.30
60087;BME280;45960;53.630;55.972;2022-07-04T02:31:45;98879.97;;;18.94;59.17
60087;BME280;45960;53.630;55.972;2022-07-04T02:32:46;98874.56;;;18.94;59.16
60087;BME280;45960;53.630;55.972;2022-07-04T02:33:47;98872.50;;;18.96;59.30
60087;BME280;45960;53.630;55.972;2022-07-04T02:34:48;98876.22;;;18.95;59.47
60087;BME280;45960;53.630;55.972;2022-07-04T02:35:49;98877.91;;;18.96;59.56
60087;BME280;45960;53.630;55.972;2022-07-04T02:36:50;98875.22;;;18.96;59.42
60087;BME280;45960;53.630;55.972;2022-07-04T02:37:51;98880.63;;;18.96;59.60
60087;BME280;45960;53.630;55.972;2022-07-04T02:38:52;98870.63;;;18.97;59.55
60087;BME280;45960;53.630;55.972;2022-07-04T02:39:53;98871.47;;;18.97;59.36
60087;BME280;45960;53.630;55.972;2022-07-04T02:40:54;98873.13;;;18.98;59.38
60087;BME280;45960;53.630;55.972;2022-07-04T02:41:55;98879.59;;;18.97;59.52
60087;BME280;45960;53.630;55.972;2022-07-04T02:42:56;98883.13;;;18.98;59.29
60087;BME280;45960;53.630;55.972;2022-07-04T02:43:57;98881.25;;;18.98;59.52
60087;BME280;45960;53.630;55.972;2022-07-04T02:44:58;98878.75;;;18.97;59.25
60087;BME280;45960;53.630;55.972;2022-07-04T02:45:59;98872.50;;;18.96;59.29
60087;BME280;45960;53.630;55.972;2022-07-04T02:47:00;98870.44;;;18.98;59.17
60087;BME280;45960;53.630;55.972;2022-07-04T02:48:01;98868.75;;;18.97;59.33
60087;BME280;45960;53.630;55.972;2022-07-04T02:49:03;98866.72;;;18.99;59.32
60087;BME280;45960;53.630;55.972;2022-07-04T02:50:05;98872.13;;;18.99;59.30
60087;BME280;45960;53.630;55.972;2022-07-04T02:51:06;98873.13;;;18.98;59.11
60087;BME280;45960;53.630;55.972;2022-07-04T02:52:07;98874.81;;;18.99;59.11
60087;BME280;45960;53.630;55.972;2022-07-04T02:53:08;98872.50;;;18.96;58.89
60087;BME280;45960;53.630;55.972;2022-07-04T02:54:10;98884.63;;;19.00;58.89
60087;BME280;45960;53.630;55.972;2022-07-04T02:55:10;98872.22;;;18.91;59.26
60087;BME280;45960;53.630;55.972;2022-07-04T02:56:12;98876.88;;;18.97;59.49
60087;BME280;45960;53.630;55.972;2022-07-04T02:57:13;98886.66;;;18.98;59.25
60087;BME280;45960;53.630;55.972;2022-07-04T02:58:14;98886.66;;;18.98;59.16
60087;BME280;45960;53.630;55.972;2022-07-04T02:59:15;98881.25;;;18.98;59.12
60087;BME280;45960;53.630;55.972;2022-07-04T03:00:16;98882.28;;;18.97;59.13
60087;BME280;45960;53.630;55.972;2022-07-04T03:01:17;98886.50;;;19.00;59.10
60087;BME280;45960;53.630;55.972;2022-07-04T03:02:20;98888.38;;;18.99;59.18
60087;BME280;45960;53.630;55.972;2022-07-04T03:03:21;98888.38;;;18.99;59.10
60087;BME280;45960;53.630;55.972;2022-07-04T03:04:22;98884.63;;;19.00;59.19
60087;BME280;45960;53.630;55.972;2022-07-04T03:05:23;98890.25;;;18.99;59.23
60087;BME280;45960;53.630;55.972;2022-07-04T03:06:25;98821.09;;;18.52;59.24
60087;BME280;45960;53.630;55.972;2022-07-04T03:07:26;98895.44;;;19.00;59.18
60087;BME280;45960;53.630;55.972;2022-07-04T03:08:27;98895.44;;;19.00;58.88
60087;BME280;45960;53.630;55.972;2022-07-04T03:09:28;98891.91;;;19.00;58.73
60087;BME280;45960;53.630;55.972;2022-07-04T03:10:30;98890.03;;;19.00;58.96
60087;BME280;45960;53.630;55.972;2022-07-04T03:11:31;98887.97;;;19.03;59.12
60087;BME280;45960;53.630;55.972;2022-07-04T03:12:32;98893.41;;;19.03;58.96
60087;BME280;45960;53.630;55.972;2022-07-04T03:13:33;98896.56;;;19.06;59.08
60087;BME280;45960;53.630;55.972;2022-07-04T03:14:34;98887.78;;;19.04;58.82
60087;BME280;45960;53.630;55.972;2022-07-04T03:15:36;98897.38;;;19.07;58.76
60087;BME280;45960;53.630;55.972;2022-07-04T03:16:37;98896.38;;;19.08;58.85
60087;BME280;45960;53.630;55.972;2022-07-04T03:17:38;98899.72;;;19.10;59.01
60087;BME280;45960;53.630;55.972;2022-07-04T03:18:40;98899.72;;;19.10;58.83
60087;BME280;45960;53.630;55.972;2022-07-04T03:19:41;98899.34;;;19.13;58.64
60087;BME280;45960;53.630;55.972;2022-07-04T03:20:42;98901.03;;;19.14;58.84
60087;BME280;45960;53.630;55.972;2022-07-04T03:21:43;98895.63;;;19.14;59.11
60087;BME280;45960;53.630;55.972;2022-07-04T03:22:44;98900.66;;;19.17;59.02
60087;BME280;45960;53.630;55.972;2022-07-04T03:23:46;98893.09;;;19.12;59.12
60087;BME280;45960;53.630;55.972;2022-07-04T03:24:58;98886.84;;;19.12;59.13
60087;BME280;45960;53.630;55.972;2022-07-04T03:26:00;98888.41;;;19.21;59.13
60087;BME280;45960;53.630;55.972;2022-07-04T03:27:01;98894.31;;;19.25;59.13
60087;BME280;45960;53.630;55.972;2022-07-04T03:28:02;98898.50;;;19.27;59.14
60087;BME280;45960;53.630;55.972;2022-07-04T03:29:03;98898.13;;;19.30;58.94
60087;BME280;45960;53.630;55.972;2022-07-04T03:30:05;98884.59;;;19.30;58.77
60087;BME280;45960;53.630;55.972;2022-07-04T03:31:06;98897.34;;;19.36;58.64
60087;BME280;45960;53.630;55.972;2022-07-04T03:32:07;98893.44;;;19.39;58.68
60087;BME280;45960;53.630;55.972;2022-07-04T03:33:09;98898.63;;;19.40;58.63
60087;BME280;45960;53.630;55.972;2022-07-04T03:34:10;98893.50;;;19.45;58.69
60087;BME280;45960;53.630;55.972;2022-07-04T03:35:11;98898.53;;;19.49;58.63
60087;BME280;45960;53.630;55.972;2022-07-04T03:36:12;98893.09;;;19.49;58.48
60087;BME280;45960;53.630;55.972;2022-07-04T03:37:13;98881.00;;;19.44;58.44
60087;BME280;45960;53.630;55.972;2022-07-04T03:38:14;98896.53;;;19.57;58.24
60087;BME280;45960;53.630;55.972;2022-07-04T03:39:15;98895.31;;;19.60;58.10
60087;BME280;45960;53.630;55.972;2022-07-04T03:40:16;98894.94;;;19.63;58.22
60087;BME280;45960;53.630;55.972;2022-07-04T03:41:17;98891.19;;;19.64;57.80
60087;BME280;45960;53.630;55.972;2022-07-04T03:42:18;98894.56;;;19.66;58.12
60087;BME280;45960;53.630;55.972;2022-07-04T03:43:19;98898.78;;;19.68;57.89
60087;BME280;45960;53.630;55.972;2022-07-04T03:44:20;98898.38;;;19.72;57.82
60087;BME280;45960;53.630;55.972;2022-07-04T03:45:21;98897.16;;;19.74;58.24
60087;BME280;45960;53.630;55.972;2022-07-04T03:46:23;98898.84;;;19.75;58.15
60087;BME280;45960;53.630;55.972;2022-07-04T03:47:24;98895.09;;;19.76;57.96
60087;BME280;45960;53.630;55.972;2022-07-04T03:48:25;98864.50;;;19.61;57.92
60087;BME280;45960;53.630;55.972;2022-07-04T03:49:26;98900.59;;;19.83;58.26
60087;BME280;45960;53.630;55.972;2022-07-04T03:50:27;98895.63;;;19.86;58.09
60087;BME280;45960;53.630;55.972;2022-07-04T03:51:28;98896.91;;;19.90;57.95
60087;BME280;45960;53.630;55.972;2022-07-04T03:52:30;98905.69;;;19.93;58.06
60087;BME280;45960;53.630;55.972;2022-07-04T03:53:31;98897.00;;;19.97;57.86
60087;BME280;45960;53.630;55.972;2022-07-04T03:54:32;98876.00;;;19.84;57.96
60087;BME280;45960;53.630;55.972;2022-07-04T03:55:33;98907.88;;;20.04;58.01
60087;BME280;45960;53.630;55.972;2022-07-04T03:56:34;98907.69;;;20.05;57.91
60087;BME280;45960;53.630;55.972;2022-07-04T03:57:35;98912.91;;;20.07;57.98
60087;BME280;45960;53.630;55.972;2022-07-04T03:58:37;98902.50;;;20.10;58.13
60087;BME280;45960;53.630;55.972;2022-07-04T03:59:38;98905.88;;;20.12;58.34
60087;BME280;45960;53.630;55.972;2022-07-04T04:00:39;98888.72;;;20.05;58.10
60087;BME280;45960;53.630;55.972;2022-07-04T04:01:40;98899.88;;;20.17;58.30
60087;BME280;45960;53.630;55.972;2022-07-04T04:02:41;98902.63;;;20.24;58.11
60087;BME280;45960;53.630;55.972;2022-07-04T04:03:43;98890.03;;;20.16;58.07
60087;BME280;45960;53.630;55.972;2022-07-04T04:05:04;98908.50;;;20.27;58.32
60087;BME280;45960;53.630;55.972;2022-07-04T04:06:23;98914.16;;;20.32;58.48
60087;BME280;45960;53.630;55.972;2022-07-04T04:07:24;98909.84;;;20.38;58.11
60087;BME280;45960;53.630;55.972;2022-07-04T04:08:25;98903.00;;;20.42;57.80
60087;BME280;45960;53.630;55.972;2022-07-04T04:09:26;98907.81;;;20.47;57.86
60087;BME280;45960;53.630;55.972;2022-07-04T04:10:29;98910.13;;;20.50;57.84
60087;BME280;45960;53.630;55.972;2022-07-04T04:11:31;98911.47;;;20.54;57.75
60087;BME280;45960;53.630;55.972;2022-07-04T04:12:32;98916.50;;;20.57;57.77
60087;BME280;45960;53.630;55.972;2022-07-04T04:13:33;98911.72;;;20.59;57.30
60087;BME280;45960;53.630;55.972;2022-07-04T04:14:34;98908.59;;;20.62;57.68
60087;BME280;45960;53.630;55.972;2022-07-04T04:15:35;98910.06;;;20.65;57.46
60087;BME280;45960;53.630;55.972;2022-07-04T04:16:36;98921.38;;;20.68;57.37
60087;BME280;45960;53.630;55.972;2022-07-04T04:17:37;98915.94;;;20.68;57.20
60087;BME280;45960;53.630;55.972;2022-07-04T04:18:38;98910.09;;;20.71;56.99
60087;BME280;45960;53.630;55.972;2022-07-04T04:19:39;98917.03;;;20.74;56.93
60087;BME280;45960;53.630;55.972;2022-07-04T04:20:40;98916.84;;;20.75;56.82
60087;BME280;45960;53.630;55.972;2022-07-04T04:21:41;98918.50;;;20.76;56.94
60087;BME280;45960;53.630;55.972;2022-07-04T04:22:43;98911.00;;;20.78;57.42
60087;BME280;45960;53.630;55.972;2022-07-04T04:23:44;98915.19;;;20.81;57.23
60087;BME280;45960;53.630;55.972;2022-07-04T04:24:45;98913.94;;;20.84;57.13
60087;BME280;45960;53.630;55.972;2022-07-04T04:25:46;98898.03;;;20.81;57.13
60087;BME280;45960;53.630;55.972;2022-07-04T04:26:47;98906.88;;;20.89;56.63
60087;BME280;45960;53.630;55.972;2022-07-04T04:27:48;98907.31;;;20.93;56.62
60087;BME280;45960;53.630;55.972;2022-07-04T04:28:49;98912.34;;;20.96;57.05
60087;BME280;45960;53.630;55.972;2022-07-04T04:29:50;98915.31;;;21.01;57.01
60087;BME280;45960;53.630;55.972;2022-07-04T04:30:51;98910.31;;;21.05;57.01
60087;BME280;45960;53.630;55.972;2022-07-04T04:31:52;98910.72;;;21.08;56.86
60087;BME280;45960;53.630;55.972;2022-07-04T04:32:53;98910.97;;;21.13;57.01
60087;BME280;45960;53.630;55.972;2022-07-04T04:33:54;98906.63;;;21.19;56.99
60087;BME280;45960;53.630;55.972;2022-07-04T04:34:55;98897.88;;;21.23;56.81
60087;BME280;45960;53.630;55.972;2022-07-04T04:35:57;98902.47;;;21.30;56.73
60087;BME280;45960;53.630;55.972;2022-07-04T04:36:59;98906.06;;;21.37;56.67
60087;BME280;45960;53.630;55.972;2022-07-04T04:38:00;98896.50;;;21.41;56.47
60087;BME280;45960;53.630;55.972;2022-07-04T04:39:02;98813.31;;;20.92;56.33
60087;BME280;45960;53.630;55.972;2022-07-04T04:40:03;98899.69;;;21.51;56.52
60087;BME280;45960;53.630;55.972;2022-07-04T04:41:04;98897.78;;;21.58;56.65
60087;BME280;45960;53.630;55.972;2022-07-04T04:42:05;98895.94;;;21.65;56.50
60087;BME280;45960;53.630;55.972;2022-07-04T04:43:07;98897.19;;;21.70;55.76
60087;BME280;45960;53.630;55.972;2022-07-04T04:44:08;98903.50;;;21.77;55.83
60087;BME280;45960;53.630;55.972;2022-07-04T04:45:09;98893.88;;;21.81;56.17
60087;BME280;45960;53.630;55.972;2022-07-04T04:46:10;98891.38;;;21.86;56.19
60087;BME280;45960;53.630;55.972;2022-07-04T04:47:11;98877.56;;;21.81;55.51
60087;BME280;45960;53.630;55.972;2022-07-04T04:48:12;98883.03;;;21.94;54.94
60087;BME280;45960;53.630;55.972;2022-07-04T04:49:13;98891.00;;;22.02;55.16
60087;BME280;45960;53.630;55.972;2022-07-04T04:50:14;98891.81;;;22.09;55.01
60087;BME280;45960;53.630;55.972;2022-07-04T04:51:16;98897.47;;;22.15;54.57
60087;BME280;45960;53.630;55.972;2022-07-04T04:52:17;98896.06;;;22.19;54.41
60087;BME280;45960;53.630;55.972;2022-07-04T04:53:18;98893.53;;;22.24;54.32
60087;BME280;45960;53.630;55.972;2022-07-04T04:54:19;98888.09;;;22.30;55.01
60087;BME280;45960;53.630;55.972;2022-07-04T04:55:20;98889.13;;;22.36;54.83
60087;BME280;45960;53.630;55.972;2022-07-04T04:56:21;98880.56;;;22.39;53.94
60087;BME280;45960;53.630;55.972;2022-07-04T04:57:22;98880.75;;;22.44;53.96
60087;BME280;45960;53.630;55.972;2022-07-04T04:58:23;98890.16;;;22.48;53.81
60087;BME280;45960;53.630;55.972;2022-07-04T04:59:25;98879.69;;;22.45;53.28
60087;BME280;45960;53.630;55.972;2022-07-04T05:00:26;98887.66;;;22.53;52.86
60087;BME280;45960;53.630;55.972;2022-07-04T05:01:27;98891.84;;;22.56;53.12
60087;BME280;45960;53.630;55.972;2022-07-04T05:02:28;98844.56;;;22.30;52.95
60087;BME280;45960;53.630;55.972;2022-07-04T05:03:29;98889.09;;;22.63;52.53
60087;BME280;45960;53.630;55.972;2022-07-04T05:04:30;98886.81;;;22.66;52.91
60087;BME280;45960;53.630;55.972;2022-07-04T05:05:31;98891.00;;;22.69;53.44
60087;BME280;45960;53.630;55.972;2022-07-04T05:06:32;98886.78;;;22.73;52.23
60087;BME280;45960;53.630;55.972;2022-07-04T05:07:33;98881.75;;;22.76;52.78
60087;BME280;45960;53.630;55.972;2022-07-04T05:08:34;98891.38;;;22.79;53.09
60087;BME280;45960;53.630;55.972;2022-07-04T05:09:35;98887.19;;;22.83;53.15
60087;BME280;45960;53.630;55.972;2022-07-04T05:10:36;98879.63;;;22.85;52.29
60087;BME280;45960;53.630;55.972;2022-07-04T05:11:37;98881.72;;;22.90;52.59
60087;BME280;45960;53.630;55.972;2022-07-04T05:12:38;98893.00;;;22.93;52.29
60087;BME280;45960;53.630;55.972;2022-07-04T05:13:40;98876.25;;;22.96;52.71
60087;BME280;45960;53.630;55.972;2022-07-04T05:14:41;98874.56;;;23.02;52.94
60087;BME280;45960;53.630;55.972;2022-07-04T05:15:42;98879.38;;;23.07;53.03
60087;BME280;45960;53.630;55.972;2022-07-04T05:16:43;98863.91;;;23.00;52.99
60087;BME280;45960;53.630;55.972;2022-07-04T05:17:44;98877.06;;;23.17;53.10
60087;BME280;45960;53.630;55.972;2022-07-04T05:18:45;98869.47;;;23.19;52.94
60087;BME280;45960;53.630;55.972;2022-07-04T05:19:47;98874.09;;;23.25;53.07
60087;BME280;45960;53.630;55.972;2022-07-04T05:20:49;98876.13;;;23.30;52.28
60087;BME280;45960;53.630;55.972;2022-07-04T05:21:50;98858.78;;;23.24;51.96